Kaiyoumaru — JD2405 — position and weather

sailwx.info

Track history (hours):
 
Tides and Currents Weather Stations Pressure Air Temp Water Temp Dewpoint Dewpoint Depression Visibility Wind Speed Wind Dir Waves Ship Positions

Kaiyoumaru

Last reported at 2018-Apr-19 19:27 UTC. Time now 2018-Apr-19 19:31 UTC.
Position N 34°55' E 136°58'.

Length 60 m.

Type: Ship. MMSI: 431005934.

Date/timePositionNaut miles runAvg speedWind from/ knotsBaromVisibWave heightAir tempDewpointWater temp
2018-Apr-19 19:27N 34°55' E 136°58'0 0.0
2018-Apr-19 12:15N 34°55' E 136°58'0 0.0
2018-Apr-19 11:51N 34°55' E 136°58'0 0.0
2018-Apr-19 11:27N 34°55' E 136°58'0 0.0
2018-Apr-19 10:57N 34°55' E 136°58'0 0.0
2018-Apr-19 10:27N 34°55' E 136°58'0 0.0
2018-Apr-19 09:57N 34°55' E 136°58'0 0.0
2018-Apr-19 09:15N 34°55' E 136°58'0 0.0
2018-Apr-19 08:57N 34°55' E 136°58'0 0.0
2018-Apr-19 07:40N 34°55' E 136°58'0 0.0
2018-Apr-19 07:28N 34°55' E 136°58'2 4.0
2018-Apr-19 07:00N 34°53' E 136°58'5 9.2
2018-Apr-19 06:30N 34°48' E 136°57'7 4.5
2018-Apr-19 04:59N 34°44' E 136°51'5 9.0
2018-Apr-19 04:29N 34°48' E 136°50'3 6.2
2018-Apr-19 03:55N 34°52' E 136°49'0 0.0
2018-Apr-19 03:25N 34°52' E 136°49'0 0.0
2018-Apr-19 02:55N 34°52' E 136°49'1 3.3
2018-Apr-19 02:30N 34°50' E 136°50'5 9.0
2018-Apr-19 02:00N 34°46' E 136°50'8 8.1
2018-Apr-19 00:57N 34°42' E 136°59'510.2
2018-Apr-19 00:27N 34°47' E 136°57'5 9.7
2018-Apr-18 23:59N 34°51' E 136°57'4 1.6
2018-Apr-18 21:47N 34°55' E 136°58'1 1.5
2018-Apr-18 21:19N 34°55' E 136°59'0 0.0
2018-Apr-18 20:58N 34°55' E 136°59'0 0.0
2018-Apr-18 20:29N 34°55' E 136°59'0 0.0
2018-Apr-18 19:59N 34°55' E 136°59'0 0.0
2018-Apr-18 19:29N 34°55' E 136°59'0 0.0
2018-Apr-18 18:59N 34°55' E 136°59'0 0.0
2018-Apr-18 18:29N 34°55' E 136°59'0 0.0
2018-Apr-18 17:59N 34°55' E 136°59'0 0.0
2018-Apr-18 17:29N 34°55' E 136°59'0 0.0
2018-Apr-18 16:59N 34°55' E 136°59'0 0.0
2018-Apr-18 16:29N 34°55' E 136°59'0 0.0
2018-Apr-18 15:59N 34°55' E 136°59'0 0.0
2018-Apr-18 15:29N 34°55' E 136°59'0 0.0
2018-Apr-18 14:59N 34°55' E 136°59'0 0.0
2018-Apr-18 14:29N 34°55' E 136°59'0 0.0
2018-Apr-18 13:59N 34°55' E 136°59'0 0.0
2018-Apr-18 13:29N 34°55' E 136°59'0 0.0
2018-Apr-18 12:59N 34°55' E 136°59'0 0.0
2018-Apr-18 12:29N 34°55' E 136°59'0 0.0
2018-Apr-18 11:59N 34°55' E 136°59'0 0.0
2018-Apr-18 11:29N 34°55' E 136°59'0 0.0
2018-Apr-18 10:59N 34°55' E 136°59'0 0.0
2018-Apr-18 10:23N 34°55' E 136°59'0 0.0
2018-Apr-18 09:59N 34°55' E 136°59'0 0.0
2018-Apr-18 09:29N 34°55' E 136°59'0 0.0
2018-Apr-18 08:59N 34°55' E 136°59'0 0.0
2018-Apr-18 08:29N 34°55' E 136°59'0 0.0
2018-Apr-18 07:59N 34°55' E 136°59'0 0.0
2018-Apr-18 07:29N 34°55' E 136°59'0 0.0
2018-Apr-18 06:59N 34°55' E 136°59'0 0.0
2018-Apr-18 06:29N 34°55' E 136°59'0 0.0
2018-Apr-18 05:59N 34°55' E 136°59'0 0.0
2018-Apr-18 05:29N 34°55' E 136°59'0 0.0
2018-Apr-18 00:40N 34°55' E 136°59'0 0.0
2018-Apr-18 00:25N 34°55' E 136°59'0 0.0
2018-Apr-17 23:58N 34°55' E 136°59'1 0.3
2018-Apr-17 21:44N 34°55' E 136°58'0 0.2
2018-Apr-17 21:26N 34°55' E 136°58'0 0.0
2018-Apr-17 20:59N 34°55' E 136°58'0 0.0
2018-Apr-17 20:29N 34°55' E 136°58'0 0.0
2018-Apr-17 19:59N 34°55' E 136°58'0 0.0
2018-Apr-17 19:29N 34°55' E 136°58'0 0.0
2018-Apr-17 18:59N 34°55' E 136°58'0 0.0
2018-Apr-17 18:29N 34°55' E 136°58'0 0.0
2018-Apr-17 17:59N 34°55' E 136°58'0 0.0
2018-Apr-17 17:29N 34°55' E 136°58'0 0.0
2018-Apr-17 16:59N 34°55' E 136°58'0 0.0
2018-Apr-17 16:29N 34°55' E 136°58'0 0.0
2018-Apr-17 15:59N 34°55' E 136°58'0 0.0
2018-Apr-17 15:29N 34°55' E 136°58'0 0.0
2018-Apr-17 14:59N 34°55' E 136°58'0 0.0
2018-Apr-17 14:29N 34°55' E 136°58'0 0.0
2018-Apr-17 13:59N 34°55' E 136°58'0 0.0
2018-Apr-17 13:29N 34°55' E 136°58'0 0.0
2018-Apr-17 12:59N 34°55' E 136°58'0 0.0
2018-Apr-17 12:29N 34°55' E 136°58'0 0.0
2018-Apr-17 11:59N 34°55' E 136°58'0 0.0
2018-Apr-17 11:29N 34°55' E 136°58'0 0.0
2018-Apr-17 10:47N 34°55' E 136°58'0 0.0
2018-Apr-17 10:29N 34°55' E 136°58'0 0.0
2018-Apr-17 09:59N 34°55' E 136°58'0 0.0
2018-Apr-17 09:29N 34°55' E 136°58'0 0.0
2018-Apr-17 08:59N 34°55' E 136°58'0 0.0
2018-Apr-17 08:29N 34°55' E 136°58'0 0.0
2018-Apr-17 07:59N 34°55' E 136°58'0 0.0
2018-Apr-17 07:29N 34°55' E 136°58'0 0.0
2018-Apr-17 06:58N 34°55' E 136°58'4 9.1
2018-Apr-17 06:30N 34°50' E 136°57'5 9.7
2018-Apr-17 06:00N 34°46' E 136°58'6 5.1
2018-Apr-17 04:52N 34°43' E 136°52'5 9.4
2018-Apr-17 04:22N 34°48' E 136°49'410.0
2018-Apr-17 04:00N 34°51' E 136°50'0 0.8
2018-Apr-17 03:28N 34°52' E 136°49'0 0.0
2018-Apr-17 02:58N 34°52' E 136°49'1 2.3
2018-Apr-17 02:30N 34°51' E 136°50'5 9.1
2018-Apr-17 02:00N 34°46' E 136°50'9 8.2
2018-Apr-17 00:56N 34°42' E 136°59'610.3
2018-Apr-17 00:21N 34°47' E 136°57'3 9.9
2018-Apr-17 00:00N 34°51' E 136°57'4 1.8
2018-Apr-16 21:53N 34°55' E 136°58'1 1.5
2018-Apr-16 21:25N 34°55' E 136°59'0 0.0
2018-Apr-16 20:52N 34°55' E 136°59'0 0.0
2018-Apr-16 20:25N 34°55' E 136°59'0 0.0
2018-Apr-16 19:49N 34°55' E 136°59'0 0.0
2018-Apr-16 19:28N 34°55' E 136°59'0 0.0
2018-Apr-16 18:55N 34°55' E 136°59'0 0.0
2018-Apr-16 18:25N 34°55' E 136°59'0 0.0
2018-Apr-16 17:55N 34°55' E 136°59'0 0.0
2018-Apr-16 17:25N 34°55' E 136°59'0 0.0
2018-Apr-16 16:55N 34°55' E 136°59'0 0.0
2018-Apr-16 16:25N 34°55' E 136°59'0 0.0
2018-Apr-16 15:55N 34°55' E 136°59'0 0.0
2018-Apr-16 15:25N 34°55' E 136°59'0 0.0
2018-Apr-16 14:55N 34°55' E 136°59'0 0.0
2018-Apr-16 14:25N 34°55' E 136°59'0 0.0
2018-Apr-16 13:58N 34°55' E 136°59'0 0.0
2018-Apr-16 13:25N 34°55' E 136°59'0 0.0
2018-Apr-16 12:55N 34°55' E 136°59'0 0.0
2018-Apr-16 12:25N 34°55' E 136°59'0 0.0
2018-Apr-16 11:55N 34°55' E 136°59'0 0.0
2018-Apr-16 11:25N 34°55' E 136°59'0 0.0
2018-Apr-16 10:55N 34°55' E 136°59'0 0.0
2018-Apr-16 10:25N 34°55' E 136°59'0 0.0
2018-Apr-16 09:58N 34°55' E 136°59'0 0.0
2018-Apr-16 09:25N 34°55' E 136°59'0 0.0
2018-Apr-16 08:58N 34°55' E 136°59'0 0.0
2018-Apr-16 08:28N 34°55' E 136°59'0 0.0
2018-Apr-16 07:55N 34°55' E 136°59'0 0.0
2018-Apr-16 07:28N 34°55' E 136°59'0 0.0
2018-Apr-16 06:58N 34°55' E 136°59'0 0.0
2018-Apr-16 06:28N 34°55' E 136°59'0 0.0
2018-Apr-16 05:55N 34°55' E 136°59'0 0.0
2018-Apr-16 05:28N 34°55' E 136°59'0 0.0
2018-Apr-16 04:55N 34°55' E 136°59'0 0.0
2018-Apr-16 04:25N 34°55' E 136°59'0 0.0
2018-Apr-16 03:58N 34°55' E 136°59'0 0.0
2018-Apr-16 03:25N 34°55' E 136°59'0 0.0
2018-Apr-16 02:55N 34°55' E 136°59'0 0.0
2018-Apr-16 02:28N 34°55' E 136°59'0 0.0
2018-Apr-16 01:58N 34°55' E 136°59'0 0.0
2018-Apr-16 01:25N 34°55' E 136°59'0 0.0
2018-Apr-16 01:00N 34°55' E 136°59'1 0.6
2018-Apr-15 23:44N 34°55' E 136°58'0 0.0
2018-Apr-15 21:50N 34°55' E 136°58'0 0.0
2018-Apr-15 21:20N 34°55' E 136°58'0 0.0
2018-Apr-15 20:56N 34°55' E 136°58'0 0.0
2018-Apr-15 20:26N 34°55' E 136°58'0 0.0
2018-Apr-15 19:56N 34°55' E 136°58'0 0.0
2018-Apr-15 19:26N 34°55' E 136°58'0 0.0
2018-Apr-15 18:56N 34°55' E 136°58'0 0.0
2018-Apr-15 18:26N 34°55' E 136°58'0 0.0
2018-Apr-15 17:56N 34°55' E 136°58'0 0.0
2018-Apr-15 17:26N 34°55' E 136°58'0 0.0
2018-Apr-15 16:56N 34°55' E 136°58'0 0.0
2018-Apr-15 16:26N 34°55' E 136°58'0 0.0
2018-Apr-15 15:56N 34°55' E 136°58'0 0.0
2018-Apr-15 15:26N 34°55' E 136°58'0 0.0
2018-Apr-15 14:56N 34°55' E 136°58'0 0.0
2018-Apr-15 14:26N 34°55' E 136°58'0 0.0
2018-Apr-15 13:56N 34°55' E 136°58'0 0.0
2018-Apr-15 13:26N 34°55' E 136°58'0 0.0
2018-Apr-15 12:56N 34°55' E 136°58'0 0.0
2018-Apr-15 12:26N 34°55' E 136°58'0 0.0
2018-Apr-15 11:56N 34°55' E 136°58'0 0.0
2018-Apr-15 11:26N 34°55' E 136°58'0 0.0
2018-Apr-15 10:56N 34°55' E 136°58'0 0.0
2018-Apr-15 10:26N 34°55' E 136°58'0 0.0
2018-Apr-15 09:56N 34°55' E 136°58'0 0.0
2018-Apr-15 09:26N 34°55' E 136°58'0 0.0
2018-Apr-15 08:56N 34°55' E 136°58'0 0.0
2018-Apr-15 08:26N 34°55' E 136°58'0 0.0
2018-Apr-15 07:59N 34°55' E 136°58'0 0.0
2018-Apr-15 07:29N 34°55' E 136°58'4 7.4
2018-Apr-15 06:58N 34°51' E 136°57'4 7.5
2018-Apr-15 06:29N 34°47' E 136°57'4 7.4
2018-Apr-15 06:00N 34°44' E 136°59'6 5.9
2018-Apr-15 05:01N 34°43' E 136°52'110.2
2018-Apr-15 04:54N 34°44' E 136°51'4 9.8
2018-Apr-15 04:30N 34°48' E 136°50'4 7.1
2018-Apr-15 03:58N 34°52' E 136°49'0 0.0
2018-Apr-15 03:28N 34°52' E 136°49'0 0.0
2018-Apr-15 02:55N 34°52' E 136°49'1 1.9
2018-Apr-15 02:30N 34°51' E 136°50'4 8.6
2018-Apr-15 02:00N 34°47' E 136°50'9 7.3
2018-Apr-15 00:46N 34°42' E 136°59'310.6
2018-Apr-15 00:29N 34°45' E 136°58'510.3
2018-Apr-15 00:00N 34°50' E 136°56'5 2.2
2018-Apr-14 21:39N 34°55' E 136°58'1 4.1
2018-Apr-14 21:30N 34°55' E 136°59'0 0.0
2018-Apr-14 20:57N 34°55' E 136°59'0 0.0
2018-Apr-14 20:29N 34°55' E 136°59'0 0.0
2018-Apr-14 19:56N 34°55' E 136°59'0 0.0
2018-Apr-14 19:26N 34°55' E 136°59'0 0.0
2018-Apr-14 18:56N 34°55' E 136°59'0 0.0
2018-Apr-14 18:26N 34°55' E 136°59'0 0.0
2018-Apr-14 17:56N 34°55' E 136°59'0 0.0
2018-Apr-14 17:20N 34°55' E 136°59'0 0.0
2018-Apr-14 16:56N 34°55' E 136°59'0 0.0
2018-Apr-14 16:20N 34°55' E 136°59'0 0.0
2018-Apr-14 15:50N 34°55' E 136°59'0 0.0
2018-Apr-14 15:20N 34°55' E 136°59'0 0.0
2018-Apr-14 14:59N 34°55' E 136°59'0 0.0
2018-Apr-14 14:26N 34°55' E 136°59'0 0.0
2018-Apr-14 13:56N 34°55' E 136°59'0 0.0
2018-Apr-14 13:26N 34°55' E 136°59'0 0.0
2018-Apr-14 12:56N 34°55' E 136°59'0 0.0
2018-Apr-14 12:26N 34°55' E 136°59'0 0.0
2018-Apr-14 11:56N 34°55' E 136°59'0 0.0
2018-Apr-14 11:20N 34°55' E 136°59'0 0.0
2018-Apr-14 10:56N 34°55' E 136°59'0 0.0
2018-Apr-14 10:26N 34°55' E 136°59'0 0.0
2018-Apr-14 09:47N 34°55' E 136°59'0 0.0
2018-Apr-14 09:26N 34°55' E 136°59'0 0.0
2018-Apr-14 08:56N 34°55' E 136°59'0 0.0
2018-Apr-14 08:26N 34°55' E 136°59'0 0.0
2018-Apr-14 07:56N 34°55' E 136°59'0 0.0
2018-Apr-14 07:20N 34°55' E 136°59'0 0.0
2018-Apr-14 06:56N 34°55' E 136°59'0 0.0
2018-Apr-14 06:26N 34°55' E 136°59'0 0.0
2018-Apr-14 05:50N 34°55' E 136°59'0 0.0
2018-Apr-14 05:08N 34°55' E 136°59'0 0.0
2018-Apr-14 04:50N 34°55' E 136°59'0 0.0
2018-Apr-14 04:17N 34°55' E 136°59'0 0.0
2018-Apr-14 03:56N 34°55' E 136°59'0 0.0
2018-Apr-14 02:47N 34°55' E 136°59'0 0.0
2018-Apr-14 02:17N 34°55' E 136°59'0 0.0
2018-Apr-14 01:56N 34°55' E 136°59'0 0.0
2018-Apr-14 01:14N 34°55' E 136°59'0 0.0
2018-Apr-14 00:56N 34°55' E 136°59'0 0.0
2018-Apr-14 00:26N 34°55' E 136°59'0 0.0
2018-Apr-13 23:56N 34°55' E 136°59'0 0.0
2018-Apr-13 23:29N 34°55' E 136°59'0 0.0
2018-Apr-13 22:59N 34°55' E 136°59'0 0.0
2018-Apr-13 22:26N 34°55' E 136°59'0 0.0
2018-Apr-13 21:56N 34°55' E 136°59'0 0.0
2018-Apr-13 21:26N 34°55' E 136°59'0 0.0
2018-Apr-13 20:56N 34°55' E 136°59'0 0.0
2018-Apr-13 20:26N 34°55' E 136°59'0 0.0
2018-Apr-13 19:59N 34°55' E 136°59'0 0.0
2018-Apr-13 19:20N 34°55' E 136°59'0 0.0
2018-Apr-13 18:56N 34°55' E 136°59'0 0.0
2018-Apr-13 18:23N 34°55' E 136°59'0 0.0
2018-Apr-13 17:50N 34°55' E 136°59'0 0.0
2018-Apr-13 17:26N 34°55' E 136°59'0 0.0
2018-Apr-13 16:56N 34°55' E 136°59'0 0.0
2018-Apr-13 16:29N 34°55' E 136°59'0 0.0
2018-Apr-13 15:56N 34°55' E 136°59'0 0.0
2018-Apr-13 15:26N 34°55' E 136°59'0 0.0
2018-Apr-13 14:56N 34°55' E 136°59'0 0.0
2018-Apr-13 14:26N 34°55' E 136°59'0 0.0
2018-Apr-13 13:56N 34°55' E 136°59'0 0.0
2018-Apr-13 13:26N 34°55' E 136°59'0 0.0
2018-Apr-13 12:56N 34°55' E 136°59'0 0.0
2018-Apr-13 12:26N 34°55' E 136°59'0 0.0
2018-Apr-13 11:56N 34°55' E 136°59'0 0.0
2018-Apr-13 11:20N 34°55' E 136°59'0 0.0
2018-Apr-13 10:56N 34°55' E 136°59'0 0.0
2018-Apr-13 10:26N 34°55' E 136°59'0 0.0
2018-Apr-13 09:56N 34°55' E 136°59'0 0.0
2018-Apr-13 09:26N 34°55' E 136°59'0 0.0
2018-Apr-13 08:59N 34°55' E 136°59'0 0.0
2018-Apr-13 08:29N 34°55' E 136°59'0 0.0
2018-Apr-13 07:56N 34°55' E 136°59'0 0.0
2018-Apr-13 07:29N 34°55' E 136°59'0 0.0
2018-Apr-13 06:56N 34°55' E 136°59'0 0.0
2018-Apr-13 06:26N 34°55' E 136°59'0 0.0
2018-Apr-13 05:56N 34°55' E 136°59'0 0.0
2018-Apr-13 05:26N 34°55' E 136°59'0 0.0
2018-Apr-13 04:56N 34°55' E 136°59'0 0.0
2018-Apr-13 04:26N 34°55' E 136°59'0 0.0
2018-Apr-13 03:56N 34°55' E 136°59'0 0.0
2018-Apr-13 03:26N 34°55' E 136°59'0 0.0
2018-Apr-13 02:56N 34°55' E 136°59'0 0.0
2018-Apr-13 02:26N 34°55' E 136°59'0 0.0
2018-Apr-13 01:56N 34°55' E 136°59'0 0.0
2018-Apr-13 01:26N 34°55' E 136°59'0 0.0
2018-Apr-13 00:59N 34°55' E 136°59'0 0.0
2018-Apr-13 00:26N 34°55' E 136°59'0 0.0
2018-Apr-12 23:56N 34°55' E 136°59'0 0.0
2018-Apr-12 23:26N 34°55' E 136°59'0 0.0
2018-Apr-12 22:56N 34°55' E 136°59'0 0.0
2018-Apr-12 22:26N 34°55' E 136°59'0 0.0
2018-Apr-12 21:56N 34°55' E 136°59'0 0.0
2018-Apr-12 00:25N 34°55' E 136°59'0 0.0
2018-Apr-11 23:55N 34°55' E 136°59'0 0.6
2018-Apr-11 23:30N 34°55' E 136°59'0 0.2
2018-Apr-11 21:47N 34°55' E 136°58'0 0.0
2018-Apr-11 21:18N 34°55' E 136°58'0 0.0
2018-Apr-11 20:42N 34°55' E 136°58'0 0.0
2018-Apr-11 20:30N 34°55' E 136°58'0 0.0
2018-Apr-11 19:54N 34°55' E 136°58'0 0.0
2018-Apr-11 19:24N 34°55' E 136°58'0 0.0
2018-Apr-11 19:00N 34°55' E 136°58'0 0.0
2018-Apr-11 18:30N 34°55' E 136°58'0 0.0
2018-Apr-11 18:00N 34°55' E 136°58'0 0.0
2018-Apr-11 17:30N 34°55' E 136°58'0 0.0
2018-Apr-11 17:00N 34°55' E 136°58'0 0.0
2018-Apr-11 16:30N 34°55' E 136°58'0 0.0
2018-Apr-11 16:00N 34°55' E 136°58'0 0.0
2018-Apr-11 15:30N 34°55' E 136°58'0 0.0
2018-Apr-11 15:00N 34°55' E 136°58'0 0.0
2018-Apr-11 14:30N 34°55' E 136°58'0 0.0
2018-Apr-11 14:00N 34°55' E 136°58'0 0.0
2018-Apr-11 13:30N 34°55' E 136°58'0 0.0
2018-Apr-11 12:54N 34°55' E 136°58'0 0.0
2018-Apr-11 12:30N 34°55' E 136°58'0 0.0
2018-Apr-11 12:00N 34°55' E 136°58'0 0.0
2018-Apr-11 11:24N 34°55' E 136°58'0 0.0
2018-Apr-11 11:00N 34°55' E 136°58'0 0.0
2018-Apr-11 10:30N 34°55' E 136°58'0 0.0
2018-Apr-11 10:00N 34°55' E 136°58'0 0.0
2018-Apr-11 08:54N 34°55' E 136°58'0 0.0
2018-Apr-11 08:30N 34°55' E 136°58'0 0.0
2018-Apr-11 08:00N 34°55' E 136°58'0 0.0
2018-Apr-11 07:24N 34°55' E 136°58'3 6.7
2018-Apr-11 07:00N 34°52' E 136°58'6 9.2
2018-Apr-11 06:24N 34°46' E 136°58'6 4.8
2018-Apr-11 05:08N 34°44' E 136°51'2 8.4
2018-Apr-11 04:57N 34°45' E 136°50'3 7.2
2018-Apr-11 04:30N 34°48' E 136°49'4 7.1
2018-Apr-11 04:00N 34°52' E 136°50'0 0.4
2018-Apr-11 03:26N 34°52' E 136°49'0 0.0
2018-Apr-11 02:56N 34°52' E 136°49'1 2.9
2018-Apr-11 02:30N 34°50' E 136°50'510.2
2018-Apr-11 01:59N 34°45' E 136°50'8 9.2
2018-Apr-11 01:06N 34°41' E 136°59'110.2
2018-Apr-11 00:59N 34°43' E 136°59'5 8.7
2018-Apr-11 00:27N 34°47' E 136°57'4 9.1
2018-Apr-11 00:00N 34°51' E 136°57'4 0.2
2018-Apr-10 07:11N 34°55' E 136°58'1 6.9
2018-Apr-10 07:00N 34°53' E 136°58'5 9.5
2018-Apr-10 06:30N 34°49' E 136°57'7 4.3
2018-Apr-10 04:57N 34°44' E 136°51'4 9.4
2018-Apr-10 04:30N 34°48' E 136°49'4 5.5
2018-Apr-10 03:48N 34°52' E 136°49'0 0.0
2018-Apr-10 03:30N 34°52' E 136°49'0 0.0
2018-Apr-10 03:00N 34°52' E 136°49'1 1.1
2018-Apr-10 02:30N 34°51' E 136°50'5 9.3
2018-Apr-10 02:00N 34°46' E 136°50'9 8.5
2018-Apr-10 00:57N 34°42' E 136°59'6 9.7
2018-Apr-10 00:22N 34°47' E 136°57'4 9.7
2018-Apr-10 00:00N 34°51' E 136°57'4 1.9
2018-Apr-09 21:47N 34°55' E 136°58'1 2.3
2018-Apr-09 21:29N 34°55' E 136°59'0 0.0
2018-Apr-09 20:52N 34°55' E 136°59'0 0.0
2018-Apr-09 20:28N 34°55' E 136°59'0 0.0
2018-Apr-09 19:34N 34°55' E 136°59'  
Track history (hours):
 
Tides and Currents Weather Stations Pressure Air Temp Water Temp Dewpoint Dewpoint Depression Visibility Wind Speed Wind Dir Waves Ship Positions

Kaiyoumaru

Last reported at 2018-Apr-19 19:27 UTC. Time now 2018-Apr-19 19:31 UTC.
Position N 34°55' E 136°58'.

Length 60 m.

Type: Ship. MMSI: 431005934.

Date/timePositionNaut miles runAvg speedWind from/ knotsBaromVisibWave heightAir tempDewpointWater temp
2018-Apr-19 19:27N 34°55' E 136°58'0 0.0
2018-Apr-19 12:15N 34°55' E 136°58'0 0.0
2018-Apr-19 11:51N 34°55' E 136°58'0 0.0
2018-Apr-19 11:27N 34°55' E 136°58'0 0.0
2018-Apr-19 10:57N 34°55' E 136°58'0 0.0
2018-Apr-19 10:27N 34°55' E 136°58'0 0.0
2018-Apr-19 09:57N 34°55' E 136°58'0 0.0
2018-Apr-19 09:15N 34°55' E 136°58'0 0.0
2018-Apr-19 08:57N 34°55' E 136°58'0 0.0
2018-Apr-19 07:40N 34°55' E 136°58'0 0.0
2018-Apr-19 07:28N 34°55' E 136°58'2 4.0
2018-Apr-19 07:00N 34°53' E 136°58'5 9.2
2018-Apr-19 06:30N 34°48' E 136°57'7 4.5
2018-Apr-19 04:59N 34°44' E 136°51'5 9.0
2018-Apr-19 04:29N 34°48' E 136°50'3 6.2
2018-Apr-19 03:55N 34°52' E 136°49'0 0.0
2018-Apr-19 03:25N 34°52' E 136°49'0 0.0
2018-Apr-19 02:55N 34°52' E 136°49'1 3.3
2018-Apr-19 02:30N 34°50' E 136°50'5 9.0
2018-Apr-19 02:00N 34°46' E 136°50'8 8.1
2018-Apr-19 00:57N 34°42' E 136°59'510.2
2018-Apr-19 00:27N 34°47' E 136°57'5 9.7
2018-Apr-18 23:59N 34°51' E 136°57'4 1.6
2018-Apr-18 21:47N 34°55' E 136°58'1 1.5
2018-Apr-18 21:19N 34°55' E 136°59'0 0.0
2018-Apr-18 20:58N 34°55' E 136°59'0 0.0
2018-Apr-18 20:29N 34°55' E 136°59'0 0.0
2018-Apr-18 19:59N 34°55' E 136°59'0 0.0
2018-Apr-18 19:29N 34°55' E 136°59'0 0.0
2018-Apr-18 18:59N 34°55' E 136°59'0 0.0
2018-Apr-18 18:29N 34°55' E 136°59'0 0.0
2018-Apr-18 17:59N 34°55' E 136°59'0 0.0
2018-Apr-18 17:29N 34°55' E 136°59'0 0.0
2018-Apr-18 16:59N 34°55' E 136°59'0 0.0
2018-Apr-18 16:29N 34°55' E 136°59'0 0.0
2018-Apr-18 15:59N 34°55' E 136°59'0 0.0
2018-Apr-18 15:29N 34°55' E 136°59'0 0.0
2018-Apr-18 14:59N 34°55' E 136°59'0 0.0
2018-Apr-18 14:29N 34°55' E 136°59'0 0.0
2018-Apr-18 13:59N 34°55' E 136°59'0 0.0
2018-Apr-18 13:29N 34°55' E 136°59'0 0.0
2018-Apr-18 12:59N 34°55' E 136°59'0 0.0
2018-Apr-18 12:29N 34°55' E 136°59'0 0.0
2018-Apr-18 11:59N 34°55' E 136°59'0 0.0
2018-Apr-18 11:29N 34°55' E 136°59'0 0.0
2018-Apr-18 10:59N 34°55' E 136°59'0 0.0
2018-Apr-18 10:23N 34°55' E 136°59'0 0.0
2018-Apr-18 09:59N 34°55' E 136°59'0 0.0
2018-Apr-18 09:29N 34°55' E 136°59'0 0.0
2018-Apr-18 08:59N 34°55' E 136°59'0 0.0
2018-Apr-18 08:29N 34°55' E 136°59'0 0.0
2018-Apr-18 07:59N 34°55' E 136°59'0 0.0
2018-Apr-18 07:29N 34°55' E 136°59'0 0.0
2018-Apr-18 06:59N 34°55' E 136°59'0 0.0
2018-Apr-18 06:29N 34°55' E 136°59'0 0.0
2018-Apr-18 05:59N 34°55' E 136°59'0 0.0
2018-Apr-18 05:29N 34°55' E 136°59'0 0.0
2018-Apr-18 00:40N 34°55' E 136°59'0 0.0
2018-Apr-18 00:25N 34°55' E 136°59'0 0.0
2018-Apr-17 23:58N 34°55' E 136°59'1 0.3
2018-Apr-17 21:44N 34°55' E 136°58'0 0.2
2018-Apr-17 21:26N 34°55' E 136°58'0 0.0
2018-Apr-17 20:59N 34°55' E 136°58'0 0.0
2018-Apr-17 20:29N 34°55' E 136°58'0 0.0
2018-Apr-17 19:59N 34°55' E 136°58'0 0.0
2018-Apr-17 19:29N 34°55' E 136°58'0 0.0
2018-Apr-17 18:59N 34°55' E 136°58'0 0.0
2018-Apr-17 18:29N 34°55' E 136°58'0 0.0
2018-Apr-17 17:59N 34°55' E 136°58'0 0.0
2018-Apr-17 17:29N 34°55' E 136°58'0 0.0
2018-Apr-17 16:59N 34°55' E 136°58'0 0.0
2018-Apr-17 16:29N 34°55' E 136°58'0 0.0
2018-Apr-17 15:59N 34°55' E 136°58'0 0.0
2018-Apr-17 15:29N 34°55' E 136°58'0 0.0
2018-Apr-17 14:59N 34°55' E 136°58'0 0.0
2018-Apr-17 14:29N 34°55' E 136°58'0 0.0
2018-Apr-17 13:59N 34°55' E 136°58'0 0.0
2018-Apr-17 13:29N 34°55' E 136°58'0 0.0
2018-Apr-17 12:59N 34°55' E 136°58'0 0.0
2018-Apr-17 12:29N 34°55' E 136°58'0 0.0
2018-Apr-17 11:59N 34°55' E 136°58'0 0.0
2018-Apr-17 11:29N 34°55' E 136°58'0 0.0
2018-Apr-17 10:47N 34°55' E 136°58'0 0.0
2018-Apr-17 10:29N 34°55' E 136°58'0 0.0
2018-Apr-17 09:59N 34°55' E 136°58'0 0.0
2018-Apr-17 09:29N 34°55' E 136°58'0 0.0
2018-Apr-17 08:59N 34°55' E 136°58'0 0.0
2018-Apr-17 08:29N 34°55' E 136°58'0 0.0
2018-Apr-17 07:59N 34°55' E 136°58'0 0.0
2018-Apr-17 07:29N 34°55' E 136°58'0 0.0
2018-Apr-17 06:58N 34°55' E 136°58'4 9.1
2018-Apr-17 06:30N 34°50' E 136°57'5 9.7
2018-Apr-17 06:00N 34°46' E 136°58'6 5.1
2018-Apr-17 04:52N 34°43' E 136°52'5 9.4
2018-Apr-17 04:22N 34°48' E 136°49'410.0
2018-Apr-17 04:00N 34°51' E 136°50'0 0.8
2018-Apr-17 03:28N 34°52' E 136°49'0 0.0
2018-Apr-17 02:58N 34°52' E 136°49'1 2.3
2018-Apr-17 02:30N 34°51' E 136°50'5 9.1
2018-Apr-17 02:00N 34°46' E 136°50'9 8.2
2018-Apr-17 00:56N 34°42' E 136°59'610.3
2018-Apr-17 00:21N 34°47' E 136°57'3 9.9
2018-Apr-17 00:00N 34°51' E 136°57'4 1.8
2018-Apr-16 21:53N 34°55' E 136°58'1 1.5
2018-Apr-16 21:25N 34°55' E 136°59'0 0.0
2018-Apr-16 20:52N 34°55' E 136°59'0 0.0
2018-Apr-16 20:25N 34°55' E 136°59'0 0.0
2018-Apr-16 19:49N 34°55' E 136°59'0 0.0
2018-Apr-16 19:28N 34°55' E 136°59'0 0.0
2018-Apr-16 18:55N 34°55' E 136°59'0 0.0
2018-Apr-16 18:25N 34°55' E 136°59'0 0.0
2018-Apr-16 17:55N 34°55' E 136°59'0 0.0
2018-Apr-16 17:25N 34°55' E 136°59'0 0.0
2018-Apr-16 16:55N 34°55' E 136°59'0 0.0
2018-Apr-16 16:25N 34°55' E 136°59'0 0.0
2018-Apr-16 15:55N 34°55' E 136°59'0 0.0
2018-Apr-16 15:25N 34°55' E 136°59'0 0.0
2018-Apr-16 14:55N 34°55' E 136°59'0 0.0
2018-Apr-16 14:25N 34°55' E 136°59'0 0.0
2018-Apr-16 13:58N 34°55' E 136°59'0 0.0
2018-Apr-16 13:25N 34°55' E 136°59'0 0.0
2018-Apr-16 12:55N 34°55' E 136°59'0 0.0
2018-Apr-16 12:25N 34°55' E 136°59'0 0.0
2018-Apr-16 11:55N 34°55' E 136°59'0 0.0
2018-Apr-16 11:25N 34°55' E 136°59'0 0.0
2018-Apr-16 10:55N 34°55' E 136°59'0 0.0
2018-Apr-16 10:25N 34°55' E 136°59'0 0.0
2018-Apr-16 09:58N 34°55' E 136°59'0 0.0
2018-Apr-16 09:25N 34°55' E 136°59'0 0.0
2018-Apr-16 08:58N 34°55' E 136°59'0 0.0
2018-Apr-16 08:28N 34°55' E 136°59'0 0.0
2018-Apr-16 07:55N 34°55' E 136°59'0 0.0
2018-Apr-16 07:28N 34°55' E 136°59'0 0.0
2018-Apr-16 06:58N 34°55' E 136°59'0 0.0
2018-Apr-16 06:28N 34°55' E 136°59'0 0.0
2018-Apr-16 05:55N 34°55' E 136°59'0 0.0
2018-Apr-16 05:28N 34°55' E 136°59'0 0.0
2018-Apr-16 04:55N 34°55' E 136°59'0 0.0
2018-Apr-16 04:25N 34°55' E 136°59'0 0.0
2018-Apr-16 03:58N 34°55' E 136°59'0 0.0
2018-Apr-16 03:25N 34°55' E 136°59'0 0.0
2018-Apr-16 02:55N 34°55' E 136°59'0 0.0
2018-Apr-16 02:28N 34°55' E 136°59'0 0.0
2018-Apr-16 01:58N 34°55' E 136°59'0 0.0
2018-Apr-16 01:25N 34°55' E 136°59'0 0.0
2018-Apr-16 01:00N 34°55' E 136°59'1 0.6
2018-Apr-15 23:44N 34°55' E 136°58'0 0.0
2018-Apr-15 21:50N 34°55' E 136°58'0 0.0
2018-Apr-15 21:20N 34°55' E 136°58'0 0.0
2018-Apr-15 20:56N 34°55' E 136°58'0 0.0
2018-Apr-15 20:26N 34°55' E 136°58'0 0.0
2018-Apr-15 19:56N 34°55' E 136°58'0 0.0
2018-Apr-15 19:26N 34°55' E 136°58'0 0.0
2018-Apr-15 18:56N 34°55' E 136°58'0 0.0
2018-Apr-15 18:26N 34°55' E 136°58'0 0.0
2018-Apr-15 17:56N 34°55' E 136°58'0 0.0
2018-Apr-15 17:26N 34°55' E 136°58'0 0.0
2018-Apr-15 16:56N 34°55' E 136°58'0 0.0
2018-Apr-15 16:26N 34°55' E 136°58'0 0.0
2018-Apr-15 15:56N 34°55' E 136°58'0 0.0
2018-Apr-15 15:26N 34°55' E 136°58'0 0.0
2018-Apr-15 14:56N 34°55' E 136°58'0 0.0
2018-Apr-15 14:26N 34°55' E 136°58'0 0.0
2018-Apr-15 13:56N 34°55' E 136°58'0 0.0
2018-Apr-15 13:26N 34°55' E 136°58'0 0.0
2018-Apr-15 12:56N 34°55' E 136°58'0 0.0
2018-Apr-15 12:26N 34°55' E 136°58'0 0.0
2018-Apr-15 11:56N 34°55' E 136°58'0 0.0
2018-Apr-15 11:26N 34°55' E 136°58'0 0.0
2018-Apr-15 10:56N 34°55' E 136°58'0 0.0
2018-Apr-15 10:26N 34°55' E 136°58'0 0.0
2018-Apr-15 09:56N 34°55' E 136°58'0 0.0
2018-Apr-15 09:26N 34°55' E 136°58'0 0.0
2018-Apr-15 08:56N 34°55' E 136°58'0 0.0
2018-Apr-15 08:26N 34°55' E 136°58'0 0.0
2018-Apr-15 07:59N 34°55' E 136°58'0 0.0
2018-Apr-15 07:29N 34°55' E 136°58'4 7.4
2018-Apr-15 06:58N 34°51' E 136°57'4 7.5
2018-Apr-15 06:29N 34°47' E 136°57'4 7.4
2018-Apr-15 06:00N 34°44' E 136°59'6 5.9
2018-Apr-15 05:01N 34°43' E 136°52'110.2
2018-Apr-15 04:54N 34°44' E 136°51'4 9.8
2018-Apr-15 04:30N 34°48' E 136°50'4 7.1
2018-Apr-15 03:58N 34°52' E 136°49'0 0.0
2018-Apr-15 03:28N 34°52' E 136°49'0 0.0
2018-Apr-15 02:55N 34°52' E 136°49'1 1.9
2018-Apr-15 02:30N 34°51' E 136°50'4 8.6
2018-Apr-15 02:00N 34°47' E 136°50'9 7.3
2018-Apr-15 00:46N 34°42' E 136°59'310.6
2018-Apr-15 00:29N 34°45' E 136°58'510.3
2018-Apr-15 00:00N 34°50' E 136°56'5 2.2
2018-Apr-14 21:39N 34°55' E 136°58'1 4.1
2018-Apr-14 21:30N 34°55' E 136°59'0 0.0
2018-Apr-14 20:57N 34°55' E 136°59'0 0.0
2018-Apr-14 20:29N 34°55' E 136°59'0 0.0
2018-Apr-14 19:56N 34°55' E 136°59'0 0.0
2018-Apr-14 19:26N 34°55' E 136°59'0 0.0
2018-Apr-14 18:56N 34°55' E 136°59'0 0.0
2018-Apr-14 18:26N 34°55' E 136°59'0 0.0
2018-Apr-14 17:56N 34°55' E 136°59'0 0.0
2018-Apr-14 17:20N 34°55' E 136°59'0 0.0
2018-Apr-14 16:56N 34°55' E 136°59'0 0.0
2018-Apr-14 16:20N 34°55' E 136°59'0 0.0
2018-Apr-14 15:50N 34°55' E 136°59'0 0.0
2018-Apr-14 15:20N 34°55' E 136°59'0 0.0
2018-Apr-14 14:59N 34°55' E 136°59'0 0.0
2018-Apr-14 14:26N 34°55' E 136°59'0 0.0
2018-Apr-14 13:56N 34°55' E 136°59'0 0.0
2018-Apr-14 13:26N 34°55' E 136°59'0 0.0
2018-Apr-14 12:56N 34°55' E 136°59'0 0.0
2018-Apr-14 12:26N 34°55' E 136°59'0 0.0
2018-Apr-14 11:56N 34°55' E 136°59'0 0.0
2018-Apr-14 11:20N 34°55' E 136°59'0 0.0
2018-Apr-14 10:56N 34°55' E 136°59'0 0.0
2018-Apr-14 10:26N 34°55' E 136°59'0 0.0
2018-Apr-14 09:47N 34°55' E 136°59'0 0.0
2018-Apr-14 09:26N 34°55' E 136°59'0 0.0
2018-Apr-14 08:56N 34°55' E 136°59'0 0.0
2018-Apr-14 08:26N 34°55' E 136°59'0 0.0
2018-Apr-14 07:56N 34°55' E 136°59'0 0.0
2018-Apr-14 07:20N 34°55' E 136°59'0 0.0
2018-Apr-14 06:56N 34°55' E 136°59'0 0.0
2018-Apr-14 06:26N 34°55' E 136°59'0 0.0
2018-Apr-14 05:50N 34°55' E 136°59'0 0.0
2018-Apr-14 05:08N 34°55' E 136°59'0 0.0
2018-Apr-14 04:50N 34°55' E 136°59'0 0.0
2018-Apr-14 04:17N 34°55' E 136°59'0 0.0
2018-Apr-14 03:56N 34°55' E 136°59'0 0.0
2018-Apr-14 02:47N 34°55' E 136°59'0 0.0
2018-Apr-14 02:17N 34°55' E 136°59'0 0.0
2018-Apr-14 01:56N 34°55' E 136°59'0 0.0
2018-Apr-14 01:14N 34°55' E 136°59'0 0.0
2018-Apr-14 00:56N 34°55' E 136°59'0 0.0
2018-Apr-14 00:26N 34°55' E 136°59'0 0.0
2018-Apr-13 23:56N 34°55' E 136°59'0 0.0
2018-Apr-13 23:29N 34°55' E 136°59'0 0.0
2018-Apr-13 22:59N 34°55' E 136°59'0 0.0
2018-Apr-13 22:26N 34°55' E 136°59'0 0.0
2018-Apr-13 21:56N 34°55' E 136°59'0 0.0
2018-Apr-13 21:26N 34°55' E 136°59'0 0.0
2018-Apr-13 20:56N 34°55' E 136°59'0 0.0
2018-Apr-13 20:26N 34°55' E 136°59'0 0.0
2018-Apr-13 19:59N 34°55' E 136°59'0 0.0
2018-Apr-13 19:20N 34°55' E 136°59'0 0.0
2018-Apr-13 18:56N 34°55' E 136°59'0 0.0
2018-Apr-13 18:23N 34°55' E 136°59'0 0.0
2018-Apr-13 17:50N 34°55' E 136°59'0 0.0
2018-Apr-13 17:26N 34°55' E 136°59'0 0.0
2018-Apr-13 16:56N 34°55' E 136°59'0 0.0
2018-Apr-13 16:29N 34°55' E 136°59'0 0.0
2018-Apr-13 15:56N 34°55' E 136°59'0 0.0
2018-Apr-13 15:26N 34°55' E 136°59'0 0.0
2018-Apr-13 14:56N 34°55' E 136°59'0 0.0
2018-Apr-13 14:26N 34°55' E 136°59'0 0.0
2018-Apr-13 13:56N 34°55' E 136°59'0 0.0
2018-Apr-13 13:26N 34°55' E 136°59'0 0.0
2018-Apr-13 12:56N 34°55' E 136°59'0 0.0
2018-Apr-13 12:26N 34°55' E 136°59'0 0.0
2018-Apr-13 11:56N 34°55' E 136°59'0 0.0
2018-Apr-13 11:20N 34°55' E 136°59'0 0.0
2018-Apr-13 10:56N 34°55' E 136°59'0 0.0
2018-Apr-13 10:26N 34°55' E 136°59'0 0.0
2018-Apr-13 09:56N 34°55' E 136°59'0 0.0
2018-Apr-13 09:26N 34°55' E 136°59'0 0.0
2018-Apr-13 08:59N 34°55' E 136°59'0 0.0
2018-Apr-13 08:29N 34°55' E 136°59'0 0.0
2018-Apr-13 07:56N 34°55' E 136°59'0 0.0
2018-Apr-13 07:29N 34°55' E 136°59'0 0.0
2018-Apr-13 06:56N 34°55' E 136°59'0 0.0
2018-Apr-13 06:26N 34°55' E 136°59'0 0.0
2018-Apr-13 05:56N 34°55' E 136°59'0 0.0
2018-Apr-13 05:26N 34°55' E 136°59'0 0.0
2018-Apr-13 04:56N 34°55' E 136°59'0 0.0
2018-Apr-13 04:26N 34°55' E 136°59'0 0.0
2018-Apr-13 03:56N 34°55' E 136°59'0 0.0
2018-Apr-13 03:26N 34°55' E 136°59'0 0.0
2018-Apr-13 02:56N 34°55' E 136°59'0 0.0
2018-Apr-13 02:26N 34°55' E 136°59'0 0.0
2018-Apr-13 01:56N 34°55' E 136°59'0 0.0
2018-Apr-13 01:26N 34°55' E 136°59'0 0.0
2018-Apr-13 00:59N 34°55' E 136°59'0 0.0
2018-Apr-13 00:26N 34°55' E 136°59'0 0.0
2018-Apr-12 23:56N 34°55' E 136°59'0 0.0
2018-Apr-12 23:26N 34°55' E 136°59'0 0.0
2018-Apr-12 22:56N 34°55' E 136°59'0 0.0
2018-Apr-12 22:26N 34°55' E 136°59'0 0.0
2018-Apr-12 21:56N 34°55' E 136°59'0 0.0
2018-Apr-12 00:25N 34°55' E 136°59'0 0.0
2018-Apr-11 23:55N 34°55' E 136°59'0 0.6
2018-Apr-11 23:30N 34°55' E 136°59'0 0.2
2018-Apr-11 21:47N 34°55' E 136°58'0 0.0
2018-Apr-11 21:18N 34°55' E 136°58'0 0.0
2018-Apr-11 20:42N 34°55' E 136°58'0 0.0
2018-Apr-11 20:30N 34°55' E 136°58'0 0.0
2018-Apr-11 19:54N 34°55' E 136°58'0 0.0
2018-Apr-11 19:24N 34°55' E 136°58'0 0.0
2018-Apr-11 19:00N 34°55' E 136°58'0 0.0
2018-Apr-11 18:30N 34°55' E 136°58'0 0.0
2018-Apr-11 18:00N 34°55' E 136°58'0 0.0
2018-Apr-11 17:30N 34°55' E 136°58'0 0.0
2018-Apr-11 17:00N 34°55' E 136°58'0 0.0
2018-Apr-11 16:30N 34°55' E 136°58'0 0.0
2018-Apr-11 16:00N 34°55' E 136°58'0 0.0
2018-Apr-11 15:30N 34°55' E 136°58'0 0.0
2018-Apr-11 15:00N 34°55' E 136°58'0 0.0
2018-Apr-11 14:30N 34°55' E 136°58'0 0.0
2018-Apr-11 14:00N 34°55' E 136°58'0 0.0
2018-Apr-11 13:30N 34°55' E 136°58'0 0.0
2018-Apr-11 12:54N 34°55' E 136°58'0 0.0
2018-Apr-11 12:30N 34°55' E 136°58'0 0.0
2018-Apr-11 12:00N 34°55' E 136°58'0 0.0
2018-Apr-11 11:24N 34°55' E 136°58'0 0.0
2018-Apr-11 11:00N 34°55' E 136°58'0 0.0
2018-Apr-11 10:30N 34°55' E 136°58'0 0.0
2018-Apr-11 10:00N 34°55' E 136°58'0 0.0
2018-Apr-11 08:54N 34°55' E 136°58'0 0.0
2018-Apr-11 08:30N 34°55' E 136°58'0 0.0
2018-Apr-11 08:00N 34°55' E 136°58'0 0.0
2018-Apr-11 07:24N 34°55' E 136°58'3 6.7
2018-Apr-11 07:00N 34°52' E 136°58'6 9.2
2018-Apr-11 06:24N 34°46' E 136°58'6 4.8
2018-Apr-11 05:08N 34°44' E 136°51'2 8.4
2018-Apr-11 04:57N 34°45' E 136°50'3 7.2
2018-Apr-11 04:30N 34°48' E 136°49'4 7.1
2018-Apr-11 04:00N 34°52' E 136°50'0 0.4
2018-Apr-11 03:26N 34°52' E 136°49'0 0.0
2018-Apr-11 02:56N 34°52' E 136°49'1 2.9
2018-Apr-11 02:30N 34°50' E 136°50'510.2
2018-Apr-11 01:59N 34°45' E 136°50'8 9.2
2018-Apr-11 01:06N 34°41' E 136°59'110.2
2018-Apr-11 00:59N 34°43' E 136°59'5 8.7
2018-Apr-11 00:27N 34°47' E 136°57'4 9.1
2018-Apr-11 00:00N 34°51' E 136°57'4 0.2
2018-Apr-10 07:11N 34°55' E 136°58'1 6.9
2018-Apr-10 07:00N 34°53' E 136°58'5 9.5
2018-Apr-10 06:30N 34°49' E 136°57'7 4.3
2018-Apr-10 04:57N 34°44' E 136°51'4 9.4
2018-Apr-10 04:30N 34°48' E 136°49'4 5.5
2018-Apr-10 03:48N 34°52' E 136°49'0 0.0
2018-Apr-10 03:30N 34°52' E 136°49'0 0.0
2018-Apr-10 03:00N 34°52' E 136°49'1 1.1
2018-Apr-10 02:30N 34°51' E 136°50'5 9.3
2018-Apr-10 02:00N 34°46' E 136°50'9 8.5
2018-Apr-10 00:57N 34°42' E 136°59'6 9.7
2018-Apr-10 00:22N 34°47' E 136°57'4 9.7
2018-Apr-10 00:00N 34°51' E 136°57'4 1.9
2018-Apr-09 21:47N 34°55' E 136°58'1 2.3
2018-Apr-09 21:29N 34°55' E 136°59'0 0.0
2018-Apr-09 20:52N 34°55' E 136°59'0 0.0
2018-Apr-09 20:28N 34°55' E 136°59'0 0.0
2018-Apr-09 19:34N 34°55' E 136°59'  

Dump ship's entire track history